PWSweather.com
Personal Weather Stations
Station Observations

VihtavuoriFI

Lat: 62.3670859, Lon: 25.9019003

Elevation: 324.8

Station Type: Davis Vantage PRO2 Aktiv

http://www.kapoweather.net/index.php

Latest ConditionsUpdated 9:30:00 AM GMT+02:02 Wednesday, Jun 20, 2018
Currently Today's Max Today's Min Today's Average
Temperature 59.0°F15.0°C 59.0°F15.0°C 49.1°F9.5°C 52.6°F11.4°C
Dew Point 42.8°F6.0°C 45.7°F7.6°C 42.8°F6.0°C 44.4°F6.9°C
Winds 7.0 mph SW11.3 kmh SW 8.0 mph -12.9 kmh - - 3.6 mph 5.8 kmh
Wind Gusts 17.0 mph27.4 kmh 21.0 mph33.8 kmh - -
Humidity 55% 85% 55% 74%
Pressure 29.58 in1001.7 mb 29.58 in1001.7 mb 29.48 in998.3 mb -
Precipitation - 0.01 in0.3 mm - -
Hour Temp Dew Point Humidity Winds Wind Gusts Pressure Precip Precip Rate Daily Precip Total
09:30 AM 59.0°F15.0°C 42.8°F6.0°C 55% 7.0 mph SW11.3 kmh SW 17.0 mph27.4 kmh 29.58 in1001.7 mb 0.00 in0.0 mm 0.00 in0.0 mm 0.01 in0.3 mm
09:15 AM 58.5°F14.7°C 42.8°F6.0°C 56% 7.0 mph SW11.3 kmh SW 21.0 mph33.8 kmh 29.58 in1001.7 mb 0.00 in0.0 mm 0.00 in0.0 mm 0.01 in0.3 mm
09:00 AM 58.0°F14.4°C 43.3°F6.3°C 58% 8.0 mph SW12.9 kmh SW 19.0 mph30.6 kmh 29.57 in1001.4 mb 0.00 in0.0 mm 0.00 in0.0 mm 0.01 in0.3 mm
08:45 AM 58.0°F14.4°C 43.3°F6.3°C 58% 6.0 mph WSW9.7 kmh WSW 15.0 mph24.1 kmh 29.57 in1001.4 mb 0.00 in0.0 mm 0.00 in0.0 mm 0.01 in0.3 mm
08:30 AM 57.8°F14.3°C 44.0°F6.7°C 60% 5.0 mph WSW8.0 kmh WSW 16.0 mph25.7 kmh 29.56 in1001.0 mb 0.00 in0.0 mm 0.00 in0.0 mm 0.01 in0.3 mm
08:15 AM 57.2°F14.0°C 44.7°F7.1°C 63% 6.0 mph SW9.7 kmh SW 15.0 mph24.1 kmh 29.56 in1001.0 mb 0.00 in0.0 mm 0.00 in0.0 mm 0.01 in0.3 mm
08:00 AM 57.0°F13.9°C 44.5°F6.9°C 63% 3.0 mph SW4.8 kmh SW 9.0 mph14.5 kmh 29.56 in1001.0 mb 0.00 in0.0 mm 0.00 in0.0 mm 0.01 in0.3 mm
07:45 AM 56.4°F13.6°C 44.0°F6.7°C 63% 5.0 mph SW8.0 kmh SW 13.0 mph20.9 kmh 29.56 in1001.0 mb 0.00 in0.0 mm 0.00 in0.0 mm 0.01 in0.3 mm
07:30 AM 56.0°F13.3°C 44.4°F6.9°C 65% 4.0 mph SW6.4 kmh SW 17.0 mph27.4 kmh 29.56 in1001.0 mb 0.00 in0.0 mm 0.00 in0.0 mm 0.01 in0.3 mm
07:15 AM 55.6°F13.1°C 43.6°F6.4°C 64% 5.0 mph SW8.0 kmh SW 16.0 mph25.7 kmh 29.56 in1001.0 mb 0.00 in0.0 mm 0.00 in0.0 mm 0.01 in0.3 mm
07:00 AM 55.0°F12.8°C 43.8°F6.6°C 66% 4.0 mph SW6.4 kmh SW 13.0 mph20.9 kmh 29.55 in1000.7 mb 0.00 in0.0 mm 0.00 in0.0 mm 0.01 in0.3 mm
06:45 AM 54.4°F12.4°C 44.4°F6.9°C 69% 3.0 mph WSW4.8 kmh WSW 11.0 mph17.7 kmh 29.54 in1000.3 mb 0.00 in0.0 mm 0.00 in0.0 mm 0.01 in0.3 mm
06:30 AM 53.8°F12.1°C 45.0°F7.2°C 72% 6.0 mph SW9.7 kmh SW 14.0 mph22.5 kmh 29.54 in1000.3 mb 0.00 in0.0 mm 0.00 in0.0 mm 0.01 in0.3 mm
06:15 AM 53.2°F11.8°C 44.8°F7.1°C 73% 4.0 mph SW6.4 kmh SW 11.0 mph17.7 kmh 29.54 in1000.3 mb 0.00 in0.0 mm 0.00 in0.0 mm 0.01 in0.3 mm
06:00 AM 52.6°F11.4°C 44.5°F6.9°C 74% 4.0 mph SW6.4 kmh SW 10.0 mph16.1 kmh 29.54 in1000.3 mb 0.00 in0.0 mm 0.00 in0.0 mm 0.01 in0.3 mm
05:45 AM 52.1°F11.2°C 44.8°F7.1°C 76% 4.0 mph SW6.4 kmh SW 12.0 mph19.3 kmh 29.54 in1000.3 mb 0.00 in0.0 mm 0.00 in0.0 mm 0.01 in0.3 mm
05:30 AM 51.4°F10.8°C 44.8°F7.1°C 78% 4.0 mph SW6.4 kmh SW 10.0 mph16.1 kmh 29.54 in1000.3 mb 0.00 in0.0 mm 0.00 in0.0 mm 0.01 in0.3 mm
05:15 AM 50.5°F10.3°C 44.6°F7.0°C 80% 3.0 mph SW4.8 kmh SW 13.0 mph20.9 kmh 29.54 in1000.3 mb 0.00 in0.0 mm 0.00 in0.0 mm 0.01 in0.3 mm
05:00 AM 50.0°F10.0°C 44.4°F6.9°C 81% 2.0 mph SW3.2 kmh SW 6.0 mph9.7 kmh 29.53 in1000.0 mb 0.00 in0.0 mm 0.00 in0.0 mm 0.01 in0.3 mm
04:45 AM 50.0°F10.0°C 44.1°F6.7°C 80% 4.0 mph SW6.4 kmh SW 8.0 mph12.9 kmh 29.53 in1000.0 mb 0.00 in0.0 mm 0.00 in0.0 mm 0.01 in0.3 mm
04:30 AM 50.1°F10.1°C 44.2°F6.8°C 80% 3.0 mph SW4.8 kmh SW 8.0 mph12.9 kmh 29.53 in1000.0 mb 0.00 in0.0 mm 0.00 in0.0 mm 0.01 in0.3 mm
04:15 AM 50.3°F10.2°C 44.0°F6.7°C 79% 3.0 mph SW4.8 kmh SW 8.0 mph12.9 kmh 29.53 in1000.0 mb 0.00 in0.0 mm 0.00 in0.0 mm 0.01 in0.3 mm
04:00 AM 50.4°F10.2°C 44.1°F6.7°C 79% 4.0 mph SW6.4 kmh SW 9.0 mph14.5 kmh 29.52 in999.7 mb 0.00 in0.0 mm 0.00 in0.0 mm 0.01 in0.3 mm
03:45 AM 50.3°F10.2°C 44.0°F6.7°C 79% 3.0 mph SW4.8 kmh SW 9.0 mph14.5 kmh 29.52 in999.7 mb 0.00 in0.0 mm 0.00 in0.0 mm 0.01 in0.3 mm
03:30 AM 50.4°F10.2°C 44.1°F6.7°C 79% 3.0 mph SW4.8 kmh SW 9.0 mph14.5 kmh 29.52 in999.7 mb 0.00 in0.0 mm 0.00 in0.0 mm 0.01 in0.3 mm
03:15 AM 50.1°F10.1°C 44.2°F6.8°C 80% 2.0 mph SW3.2 kmh SW 8.0 mph12.9 kmh 29.52 in999.7 mb 0.00 in0.0 mm 0.00 in0.0 mm 0.01 in0.3 mm
03:00 AM 49.6°F9.8°C 44.3°F6.8°C 82% 1.0 mph SW1.6 kmh SW 5.0 mph8.0 kmh 29.52 in999.7 mb 0.00 in0.0 mm 0.00 in0.0 mm 0.01 in0.3 mm
02:45 AM 49.1°F9.5°C 44.5°F6.9°C 84% 1.0 mph SW1.6 kmh SW 4.0 mph6.4 kmh 29.51 in999.3 mb 0.00 in0.0 mm 0.00 in0.0 mm 0.01 in0.3 mm
02:30 AM 49.1°F9.5°C 44.8°F7.1°C 85% Calm Calm 3.0 mph4.8 kmh 29.50 in999.0 mb 0.00 in0.0 mm 0.00 in0.0 mm 0.01 in0.3 mm
02:15 AM 49.4°F9.7°C 44.8°F7.1°C 84% Calm Calm 4.0 mph6.4 kmh 29.50 in999.0 mb 0.00 in0.0 mm 0.00 in0.0 mm 0.01 in0.3 mm
02:00 AM 49.7°F9.8°C 45.1°F7.3°C 84% Calm Calm 3.0 mph4.8 kmh 29.50 in999.0 mb 0.01 in0.3 mm 0.00 in0.0 mm 0.01 in0.3 mm
01:45 AM 49.9°F9.9°C 44.9°F7.2°C 83% 1.0 mph SW1.6 kmh SW 5.0 mph8.0 kmh 29.50 in999.0 mb 0.01 in0.3 mm 0.00 in0.0 mm 0.01 in0.3 mm
01:30 AM 50.2°F10.1°C 44.9°F7.2°C 82% 2.0 mph SW3.2 kmh SW 5.0 mph8.0 kmh 29.49 in998.6 mb 0.01 in0.3 mm 0.00 in0.0 mm 0.01 in0.3 mm
01:15 AM 50.4°F10.2°C 45.1°F7.3°C 82% 3.0 mph SW4.8 kmh SW 7.0 mph11.3 kmh 29.49 in998.6 mb 0.01 in0.3 mm 0.04 in1.0 mm 0.01 in0.3 mm
01:00 AM 50.8°F10.4°C 45.2°F7.3°C 81% 3.0 mph SW4.8 kmh SW 8.0 mph12.9 kmh 29.49 in998.6 mb 0.00 in0.0 mm 0.00 in0.0 mm 0.00 in0.0 mm
12:45 AM 51.1°F10.6°C 45.5°F7.5°C 81% 3.0 mph SW4.8 kmh SW 8.0 mph12.9 kmh 29.49 in998.6 mb 0.00 in0.0 mm 0.00 in0.0 mm 0.00 in0.0 mm
12:30 AM 51.4°F10.8°C 45.4°F7.4°C 80% 4.0 mph SW6.4 kmh SW 15.0 mph24.1 kmh 29.49 in998.6 mb 0.00 in0.0 mm 0.00 in0.0 mm 0.00 in0.0 mm
12:15 AM 51.6°F10.9°C 45.6°F7.6°C 80% 5.0 mph SW8.0 kmh SW 13.0 mph20.9 kmh 29.49 in998.6 mb 0.00 in0.0 mm 0.00 in0.0 mm 0.00 in0.0 mm
12:00 AM 51.3°F10.7°C 45.7°F7.6°C 81% 5.0 mph SW8.0 kmh SW 11.0 mph17.7 kmh 29.48 in998.3 mb 0.00 in0.0 mm 0.00 in0.0 mm 0.00 in0.0 mm